sensor_id;sensor_type;location;lat;lon;timestamp;pressure;altitude;pressure_sealevel;temperature;humidity
20015;BME280;61787;42.022;23.078;2022-07-17T00:00:32;97020.03;;;22.84;58.83
20015;BME280;61787;42.022;23.078;2022-07-17T00:01:34;97014.41;;;22.61;59.36
20015;BME280;61787;42.022;23.078;2022-07-17T00:02:35;97016.50;;;22.42;60.49
20015;BME280;61787;42.022;23.078;2022-07-17T00:03:37;97016.66;;;22.28;61.29
20015;BME280;61787;42.022;23.078;2022-07-17T00:04:40;97020.59;;;22.24;61.18
20015;BME280;61787;42.022;23.078;2022-07-17T00:05:42;97018.31;;;22.19;61.94
20015;BME280;61787;42.022;23.078;2022-07-17T00:06:44;97026.53;;;22.15;61.85
20015;BME280;61787;42.022;23.078;2022-07-17T00:07:46;97025.38;;;22.13;62.04
20015;BME280;61787;42.022;23.078;2022-07-17T00:08:49;97021.50;;;22.10;62.70
20015;BME280;61787;42.022;23.078;2022-07-17T00:09:51;97025.41;;;22.09;63.31
20015;BME280;61787;42.022;23.078;2022-07-17T00:10:53;97024.59;;;22.12;63.17
20015;BME280;61787;42.022;23.078;2022-07-17T00:11:55;97030.78;;;22.20;63.21
20015;BME280;61787;42.022;23.078;2022-07-17T00:12:57;97025.25;;;22.27;63.64
20015;BME280;61787;42.022;23.078;2022-07-17T00:13:59;97022.94;;;22.25;63.58
20015;BME280;61787;42.022;23.078;2022-07-17T00:15:01;97026.06;;;22.24;63.59
20015;BME280;61787;42.022;23.078;2022-07-17T00:16:03;97028.41;;;22.25;63.32
20015;BME280;61787;42.022;23.078;2022-07-17T00:17:05;97022.19;;;22.21;63.65
20015;BME280;61787;42.022;23.078;2022-07-17T00:18:07;97028.03;;;22.23;64.01
20015;BME280;61787;42.022;23.078;2022-07-17T00:19:08;97024.53;;;22.19;64.27
20015;BME280;61787;42.022;23.078;2022-07-17T00:20:11;97030.00;;;22.19;64.05
20015;BME280;61787;42.022;23.078;2022-07-17T00:21:13;97026.09;;;22.20;64.44
20015;BME280;61787;42.022;23.078;2022-07-17T00:22:14;97024.53;;;22.19;64.45
20015;BME280;61787;42.022;23.078;2022-07-17T00:23:16;97025.34;;;22.16;63.88
20015;BME280;61787;42.022;23.078;2022-07-17T00:24:18;97025.34;;;22.16;63.60
20015;BME280;61787;42.022;23.078;2022-07-17T00:25:23;97031.56;;;22.20;63.96
20015;BME280;61787;42.022;23.078;2022-07-17T00:26:25;97033.88;;;22.22;63.38
20015;BME280;61787;42.022;23.078;2022-07-17T00:27:27;97027.69;;;22.18;62.91
20015;BME280;61787;42.022;23.078;2022-07-17T00:28:29;97027.72;;;22.14;63.03
20015;BME280;61787;42.022;23.078;2022-07-17T00:29:30;97023.41;;;22.13;63.00
20015;BME280;61787;42.022;23.078;2022-07-17T00:30:32;97026.88;;;22.21;62.67
20015;BME280;61787;42.022;23.078;2022-07-17T00:31:34;97030.28;;;22.32;62.57
20015;BME280;61787;42.022;23.078;2022-07-17T00:32:36;97030.56;;;22.44;62.09
20015;BME280;61787;42.022;23.078;2022-07-17T00:33:38;97024.22;;;22.54;61.95
20015;BME280;61787;42.022;23.078;2022-07-17T00:34:39;97024.16;;;22.62;61.68
20015;BME280;61787;42.022;23.078;2022-07-17T00:35:41;97021.34;;;22.69;61.52
20015;BME280;61787;42.022;23.078;2022-07-17T00:36:42;97026.75;;;22.76;61.38
20015;BME280;61787;42.022;23.078;2022-07-17T00:37:47;97027.03;;;22.85;60.75
20015;BME280;61787;42.022;23.078;2022-07-17T00:38:49;97020.31;;;22.93;60.44
20015;BME280;61787;42.022;23.078;2022-07-17T00:39:50;97025.31;;;23.02;60.41
20015;BME280;61787;42.022;23.078;2022-07-17T00:40:58;97026.75;;;23.10;60.25
20015;BME280;61787;42.022;23.078;2022-07-17T00:42:00;97029.00;;;23.18;60.42
20015;BME280;61787;42.022;23.078;2022-07-17T00:43:02;97030.91;;;23.21;60.64
20015;BME280;61787;42.022;23.078;2022-07-17T00:44:09;97030.84;;;23.28;61.28
20015;BME280;61787;42.022;23.078;2022-07-17T00:45:12;97028.91;;;23.25;61.29
20015;BME280;61787;42.022;23.078;2022-07-17T00:46:14;97029.00;;;23.18;61.68
20015;BME280;61787;42.022;23.078;2022-07-17T00:47:18;97035.28;;;23.15;62.19
20015;BME280;61787;42.022;23.078;2022-07-17T00:48:20;97035.28;;;23.15;62.38
20015;BME280;61787;42.022;23.078;2022-07-17T00:49:23;97046.22;;;23.15;62.39
20015;BME280;61787;42.022;23.078;2022-07-17T00:50:38;97042.31;;;23.16;62.26
20015;BME280;61787;42.022;23.078;2022-07-17T00:51:41;97046.94;;;23.19;62.23
20015;BME280;61787;42.022;23.078;2022-07-17T00:52:42;97041.03;;;23.24;62.47
20015;BME280;61787;42.022;23.078;2022-07-17T00:53:44;97038.72;;;23.23;62.09
20015;BME280;61787;42.022;23.078;2022-07-17T00:54:46;97037.94;;;23.22;62.45
20015;BME280;61787;42.022;23.078;2022-07-17T00:55:56;97047.72;;;23.20;62.39
20015;BME280;61787;42.022;23.078;2022-07-17T00:57:00;97049.34;;;23.17;62.50
20015;BME280;61787;42.022;23.078;2022-07-17T00:58:04;97043.16;;;23.13;62.63
20015;BME280;61787;42.022;23.078;2022-07-17T00:59:06;97047.97;;;22.99;62.99
20015;BME280;61787;42.022;23.078;2022-07-17T01:00:08;97043.00;;;22.90;63.15
20015;BME280;61787;42.022;23.078;2022-07-17T01:01:12;97045.06;;;22.82;63.06
20015;BME280;61787;42.022;23.078;2022-07-17T01:02:13;97040.34;;;22.83;62.87
20015;BME280;61787;42.022;23.078;2022-07-17T01:03:16;97044.63;;;22.84;62.96
20015;BME280;61787;42.022;23.078;2022-07-17T01:04:19;97047.75;;;22.86;62.77
20015;BME280;61787;42.022;23.078;2022-07-17T01:05:21;97041.44;;;22.89;62.69
20015;BME280;61787;42.022;23.078;2022-07-17T01:06:23;97042.59;;;22.91;62.68
20015;BME280;61787;42.022;23.078;2022-07-17T01:07:25;97044.91;;;22.93;62.56
20015;BME280;61787;42.022;23.078;2022-07-17T01:08:27;97045.28;;;22.95;62.89
20015;BME280;61787;42.022;23.078;2022-07-17T01:09:29;97048.84;;;22.92;62.51
20015;BME280;61787;42.022;23.078;2022-07-17T01:10:31;97047.66;;;22.93;62.84
20015;BME280;61787;42.022;23.078;2022-07-17T01:11:33;97042.88;;;23.01;62.51
20015;BME280;61787;42.022;23.078;2022-07-17T01:12:36;97048.75;;;23.03;62.46
20015;BME280;61787;42.022;23.078;2022-07-17T01:13:38;97041.31;;;23.03;62.34
20015;BME280;61787;42.022;23.078;2022-07-17T01:14:40;97038.53;;;23.07;62.66
20015;BME280;61787;42.022;23.078;2022-07-17T01:15:42;97049.06;;;23.08;62.84
20015;BME280;61787;42.022;23.078;2022-07-17T01:16:45;97048.69;;;23.06;62.98
20015;BME280;61787;42.022;23.078;2022-07-17T01:17:47;97051.63;;;22.88;63.82
20015;BME280;61787;42.022;23.078;2022-07-17T01:18:49;97049.78;;;22.78;63.80
20015;BME280;61787;42.022;23.078;2022-07-17T01:19:51;97049.00;;;22.78;63.69
20015;BME280;61787;42.022;23.078;2022-07-17T01:20:53;97048.97;;;22.81;63.82
20015;BME280;61787;42.022;23.078;2022-07-17T01:21:55;97064.66;;;22.77;63.96
20015;BME280;61787;42.022;23.078;2022-07-17T01:22:57;97048.31;;;22.67;64.06
20015;BME280;61787;42.022;23.078;2022-07-17T01:23:59;97057.03;;;22.54;63.92
20015;BME280;61787;42.022;23.078;2022-07-17T01:25:01;97056.28;;;22.47;64.52
20015;BME280;61787;42.022;23.078;2022-07-17T01:26:02;97054.81;;;22.39;64.73
20015;BME280;61787;42.022;23.078;2022-07-17T01:27:04;97048.28;;;22.29;64.74
20015;BME280;61787;42.022;23.078;2022-07-17T01:28:06;97052.59;;;22.23;64.90
20015;BME280;61787;42.022;23.078;2022-07-17T01:29:09;97054.56;;;22.26;65.16
20015;BME280;61787;42.022;23.078;2022-07-17T01:30:12;97048.66;;;22.31;64.75
20015;BME280;61787;42.022;23.078;2022-07-17T01:31:13;97054.03;;;22.38;64.68
20015;BME280;61787;42.022;23.078;2022-07-17T01:32:15;97053.25;;;22.41;64.48
20015;BME280;61787;42.022;23.078;2022-07-17T01:33:18;97058.28;;;22.46;64.63
20015;BME280;61787;42.022;23.078;2022-07-17T01:34:20;97060.19;;;22.49;64.89
20015;BME280;61787;42.022;23.078;2022-07-17T01:35:22;97054.28;;;22.54;64.57
20015;BME280;61787;42.022;23.078;2022-07-17T01:36:24;97053.91;;;22.52;64.97
20015;BME280;61787;42.022;23.078;2022-07-17T01:37:26;97058.19;;;22.53;64.74
20015;BME280;61787;42.022;23.078;2022-07-17T01:38:27;97057.75;;;22.59;64.48
20015;BME280;61787;42.022;23.078;2022-07-17T01:39:29;97055.47;;;22.53;65.08
20015;BME280;61787;42.022;23.078;2022-07-17T01:40:49;97064.63;;;22.36;65.42
20015;BME280;61787;42.022;23.078;2022-07-17T01:41:52;97066.56;;;22.32;65.13
20015;BME280;61787;42.022;23.078;2022-07-17T01:42:54;97060.41;;;22.25;65.28
20015;BME280;61787;42.022;23.078;2022-07-17T01:43:57;97062.09;;;22.08;65.04
20015;BME280;61787;42.022;23.078;2022-07-17T01:45:00;97058.22;;;22.05;65.62
20015;BME280;61787;42.022;23.078;2022-07-17T01:46:02;97055.16;;;22.00;64.44
20015;BME280;61787;42.022;23.078;2022-07-17T01:47:04;97061.41;;;21.93;64.79
20015;BME280;61787;42.022;23.078;2022-07-17T01:48:06;97048.94;;;21.89;65.35
20015;BME280;61787;42.022;23.078;2022-07-17T01:49:08;97049.06;;;21.75;65.25
20015;BME280;61787;42.022;23.078;2022-07-17T01:50:11;97052.97;;;21.66;65.59
20015;BME280;61787;42.022;23.078;2022-07-17T01:51:13;97058.47;;;21.63;65.76
20015;BME280;61787;42.022;23.078;2022-07-17T01:52:14;97053.81;;;21.56;65.92
20015;BME280;61787;42.022;23.078;2022-07-17T01:53:16;97051.50;;;21.51;66.42
20015;BME280;61787;42.022;23.078;2022-07-17T01:54:18;97047.63;;;21.45;67.01
20015;BME280;61787;42.022;23.078;2022-07-17T01:55:19;97057.81;;;21.41;67.01
20015;BME280;61787;42.022;23.078;2022-07-17T01:56:21;97046.91;;;21.34;67.39
20015;BME280;61787;42.022;23.078;2022-07-17T01:57:23;97052.38;;;21.34;67.24
20015;BME280;61787;42.022;23.078;2022-07-17T01:58:25;97058.22;;;21.36;67.34
20015;BME280;61787;42.022;23.078;2022-07-17T01:59:27;97053.16;;;21.38;66.73
20015;BME280;61787;42.022;23.078;2022-07-17T02:00:29;97049.28;;;21.32;67.02
20015;BME280;61787;42.022;23.078;2022-07-17T02:01:30;97052.00;;;21.32;66.51
20015;BME280;61787;42.022;23.078;2022-07-17T02:02:33;97059.00;;;21.37;67.12
20015;BME280;61787;42.022;23.078;2022-07-17T02:03:34;97057.81;;;21.41;66.99
20015;BME280;61787;42.022;23.078;2022-07-17T02:04:38;97053.09;;;21.49;66.60
20015;BME280;61787;42.022;23.078;2022-07-17T02:05:39;97047.63;;;21.52;66.20
20015;BME280;61787;42.022;23.078;2022-07-17T02:06:41;97067.09;;;21.54;65.83
20015;BME280;61787;42.022;23.078;2022-07-17T02:07:43;97059.28;;;21.56;65.33
20015;BME280;61787;42.022;23.078;2022-07-17T02:08:45;97053.06;;;21.52;65.61
20015;BME280;61787;42.022;23.078;2022-07-17T02:09:50;97050.81;;;21.37;66.14
20015;BME280;61787;42.022;23.078;2022-07-17T02:10:51;97058.69;;;21.20;66.49
20015;BME280;61787;42.022;23.078;2022-07-17T02:11:54;97062.56;;;21.19;66.65
20015;BME280;61787;42.022;23.078;2022-07-17T02:12:56;97067.25;;;21.22;66.75
20015;BME280;61787;42.022;23.078;2022-07-17T02:13:59;97063.75;;;21.15;66.69
20015;BME280;61787;42.022;23.078;2022-07-17T02:15:02;97064.94;;;21.07;66.68
20015;BME280;61787;42.022;23.078;2022-07-17T02:16:04;97064.53;;;21.05;66.80
20015;BME280;61787;42.022;23.078;2022-07-17T02:17:06;97066.91;;;21.03;67.23
20015;BME280;61787;42.022;23.078;2022-07-17T02:18:08;97063.38;;;20.99;67.42
20015;BME280;61787;42.022;23.078;2022-07-17T02:19:10;97054.03;;;21.00;68.11
20015;BME280;61787;42.022;23.078;2022-07-17T02:20:12;97064.94;;;21.07;68.06
20015;BME280;61787;42.022;23.078;2022-07-17T02:21:14;97053.59;;;21.19;68.03
20015;BME280;61787;42.022;23.078;2022-07-17T02:22:15;97055.50;;;21.29;68.28
20015;BME280;61787;42.022;23.078;2022-07-17T02:23:17;97064.50;;;21.26;69.11
20015;BME280;61787;42.022;23.078;2022-07-17T02:24:19;97064.88;;;21.24;70.24
20015;BME280;61787;42.022;23.078;2022-07-17T02:25:21;97062.56;;;21.23;71.06
20015;BME280;61787;42.022;23.078;2022-07-17T02:26:23;97066.47;;;21.22;69.89
20015;BME280;61787;42.022;23.078;2022-07-17T02:27:26;97060.25;;;21.18;70.13
20015;BME280;61787;42.022;23.078;2022-07-17T02:28:27;97064.16;;;21.17;70.29
20015;BME280;61787;42.022;23.078;2022-07-17T02:29:29;97062.59;;;21.12;70.92
20015;BME280;61787;42.022;23.078;2022-07-17T02:30:30;97063.38;;;21.06;70.46
20015;BME280;61787;42.022;23.078;2022-07-17T02:31:32;97071.56;;;20.99;70.22
20015;BME280;61787;42.022;23.078;2022-07-17T02:32:34;97061.88;;;20.91;70.11
20015;BME280;61787;42.022;23.078;2022-07-17T02:33:36;97066.97;;;20.81;69.00
20015;BME280;61787;42.022;23.078;2022-07-17T02:34:37;97063.81;;;20.83;68.63
20015;BME280;61787;42.022;23.078;2022-07-17T02:35:39;97065.00;;;20.85;68.07
20015;BME280;61787;42.022;23.078;2022-07-17T02:36:41;97062.66;;;20.84;68.19
20015;BME280;61787;42.022;23.078;2022-07-17T02:37:43;97055.66;;;20.83;68.27
20015;BME280;61787;42.022;23.078;2022-07-17T02:38:44;97069.69;;;20.78;67.75
20015;BME280;61787;42.022;23.078;2022-07-17T02:39:46;97068.13;;;20.73;68.47
20015;BME280;61787;42.022;23.078;2022-07-17T02:40:54;97064.25;;;20.71;68.30
20015;BME280;61787;42.022;23.078;2022-07-17T02:41:55;97070.09;;;20.69;68.16
20015;BME280;61787;42.022;23.078;2022-07-17T02:42:57;97071.25;;;20.75;68.33
20015;BME280;61787;42.022;23.078;2022-07-17T02:43:59;97065.00;;;20.78;68.06
20015;BME280;61787;42.022;23.078;2022-07-17T02:45:00;97066.56;;;20.79;68.12
20015;BME280;61787;42.022;23.078;2022-07-17T02:46:02;97068.94;;;20.77;67.86
20015;BME280;61787;42.022;23.078;2022-07-17T02:47:04;97070.47;;;20.78;68.09
20015;BME280;61787;42.022;23.078;2022-07-17T02:48:06;97069.69;;;20.78;68.04
20015;BME280;61787;42.022;23.078;2022-07-17T02:49:07;97065.41;;;20.73;68.07
20015;BME280;61787;42.022;23.078;2022-07-17T02:50:09;97075.16;;;20.71;67.84
20015;BME280;61787;42.022;23.078;2022-07-17T02:51:11;97068.13;;;20.73;67.72
20015;BME280;61787;42.022;23.078;2022-07-17T02:52:13;97065.81;;;20.72;67.89
20015;BME280;61787;42.022;23.078;2022-07-17T02:53:15;97071.25;;;20.75;67.79
20015;BME280;61787;42.022;23.078;2022-07-17T02:54:16;97074.34;;;20.84;68.18
20015;BME280;61787;42.022;23.078;2022-07-17T02:55:18;97073.53;;;20.95;67.76
20015;BME280;61787;42.022;23.078;2022-07-17T02:56:20;97075.06;;;20.99;67.42
20015;BME280;61787;42.022;23.078;2022-07-17T02:57:21;97073.94;;;20.97;67.17
20015;BME280;61787;42.022;23.078;2022-07-17T02:58:23;97080.53;;;21.03;67.20
20015;BME280;61787;42.022;23.078;2022-07-17T02:59:25;97078.97;;;21.02;66.86
20015;BME280;61787;42.022;23.078;2022-07-17T03:00:26;97084.44;;;21.02;67.17
20015;BME280;61787;42.022;23.078;2022-07-17T03:01:28;97079.38;;;20.97;67.24
20015;BME280;61787;42.022;23.078;2022-07-17T03:02:30;97085.25;;;20.84;67.91
20015;BME280;61787;42.022;23.078;2022-07-17T03:03:32;97082.56;;;20.77;68.09
20015;BME280;61787;42.022;23.078;2022-07-17T03:04:34;97087.22;;;20.80;67.79
20015;BME280;61787;42.022;23.078;2022-07-17T03:05:35;97086.03;;;20.85;68.15
20015;BME280;61787;42.022;23.078;2022-07-17T03:06:37;97084.47;;;20.88;68.04
20015;BME280;61787;42.022;23.078;2022-07-17T03:07:39;97089.13;;;20.91;68.42
20015;BME280;61787;42.022;23.078;2022-07-17T03:08:41;97086.00;;;20.96;68.31
20015;BME280;61787;42.022;23.078;2022-07-17T03:09:42;97087.94;;;20.99;68.23
20015;BME280;61787;42.022;23.078;2022-07-17T03:10:44;97083.28;;;20.96;68.43
20015;BME280;61787;42.022;23.078;2022-07-17T03:11:46;97092.25;;;20.93;67.16
20015;BME280;61787;42.022;23.078;2022-07-17T03:12:47;97084.47;;;20.88;67.88
20015;BME280;61787;42.022;23.078;2022-07-17T03:13:49;97080.97;;;20.87;67.81
20015;BME280;61787;42.022;23.078;2022-07-17T03:14:51;97081.34;;;20.85;67.54
20015;BME280;61787;42.022;23.078;2022-07-17T03:15:52;97086.03;;;20.78;67.79
20015;BME280;61787;42.022;23.078;2022-07-17T03:16:54;97082.16;;;20.75;68.02
20015;BME280;61787;42.022;23.078;2022-07-17T03:17:57;97091.47;;;20.89;67.86
20015;BME280;61787;42.022;23.078;2022-07-17T03:18:59;97086.75;;;21.00;67.44
20015;BME280;61787;42.022;23.078;2022-07-17T03:20:01;97089.88;;;21.16;66.83
20015;BME280;61787;42.022;23.078;2022-07-17T03:21:03;97087.88;;;21.27;66.89
20015;BME280;61787;42.022;23.078;2022-07-17T03:22:04;97090.25;;;21.21;67.45
20015;BME280;61787;42.022;23.078;2022-07-17T03:23:06;97086.72;;;21.21;67.55
20015;BME280;61787;42.022;23.078;2022-07-17T03:24:08;97080.13;;;21.11;67.36
20015;BME280;61787;42.022;23.078;2022-07-17T03:25:10;97090.69;;;20.95;67.87
20015;BME280;61787;42.022;23.078;2022-07-17T03:26:11;97087.16;;;20.95;67.98
20015;BME280;61787;42.022;23.078;2022-07-17T03:27:13;97085.22;;;20.99;67.52
20015;BME280;61787;42.022;23.078;2022-07-17T03:28:14;97089.84;;;21.09;67.03
20015;BME280;61787;42.022;23.078;2022-07-17T03:29:16;97085.97;;;21.10;67.29
20015;BME280;61787;42.022;23.078;2022-07-17T03:30:18;97088.28;;;21.11;68.36
20015;BME280;61787;42.022;23.078;2022-07-17T03:31:20;97086.72;;;21.21;68.17
20015;BME280;61787;42.022;23.078;2022-07-17T03:32:23;97096.09;;;21.23;68.16
20015;BME280;61787;42.022;23.078;2022-07-17T03:33:24;97092.16;;;21.24;67.91
20015;BME280;61787;42.022;23.078;2022-07-17T03:34:26;97093.72;;;21.25;68.24
20015;BME280;61787;42.022;23.078;2022-07-17T03:35:27;97098.41;;;21.29;68.09
20015;BME280;61787;42.022;23.078;2022-07-17T03:36:29;97103.84;;;21.32;68.20
20015;BME280;61787;42.022;23.078;2022-07-17T03:37:31;97106.53;;;21.39;67.76
20015;BME280;61787;42.022;23.078;2022-07-17T03:38:33;97103.78;;;21.46;68.32
20015;BME280;61787;42.022;23.078;2022-07-17T03:39:34;97106.09;;;21.51;68.09
20015;BME280;61787;42.022;23.078;2022-07-17T03:40:36;97099.84;;;21.58;67.86
20015;BME280;61787;42.022;23.078;2022-07-17T03:41:38;97108.34;;;21.67;67.98
20015;BME280;61787;42.022;23.078;2022-07-17T03:42:40;97099.72;;;21.76;68.38
20015;BME280;61787;42.022;23.078;2022-07-17T03:43:41;97104.41;;;21.79;68.12
20015;BME280;61787;42.022;23.078;2022-07-17T03:44:43;97102.03;;;21.81;68.85
20015;BME280;61787;42.022;23.078;2022-07-17T03:45:45;97104.41;;;21.79;68.93
20015;BME280;61787;42.022;23.078;2022-07-17T03:46:47;97106.72;;;21.84;68.63
20015;BME280;61787;42.022;23.078;2022-07-17T03:47:49;97109.78;;;21.93;68.36
20015;BME280;61787;42.022;23.078;2022-07-17T03:48:51;97098.84;;;22.00;68.80
20015;BME280;61787;42.022;23.078;2022-07-17T03:49:53;97112.81;;;22.09;68.50
20015;BME280;61787;42.022;23.078;2022-07-17T03:50:55;97105.75;;;22.11;68.70
20015;BME280;61787;42.022;23.078;2022-07-17T03:51:57;97104.97;;;22.11;67.09
20015;BME280;61787;42.022;23.078;2022-07-17T03:52:58;97108.13;;;22.06;65.67
20015;BME280;61787;42.022;23.078;2022-07-17T03:54:00;97104.97;;;22.11;66.44
20015;BME280;61787;42.022;23.078;2022-07-17T03:55:02;97106.63;;;22.05;66.24
20015;BME280;61787;42.022;23.078;2022-07-17T03:56:04;97109.38;;;21.91;65.17
20015;BME280;61787;42.022;23.078;2022-07-17T03:57:06;97109.09;;;21.75;66.89
20015;BME280;61787;42.022;23.078;2022-07-17T03:58:07;97113.84;;;21.63;66.47
20015;BME280;61787;42.022;23.078;2022-07-17T03:59:09;97107.25;;;21.50;65.87
20015;BME280;61787;42.022;23.078;2022-07-17T04:00:11;97121.38;;;21.38;66.00
20015;BME280;61787;42.022;23.078;2022-07-17T04:01:12;97121.75;;;21.30;65.36
20015;BME280;61787;42.022;23.078;2022-07-17T04:02:14;97121.78;;;21.26;65.69
20015;BME280;61787;42.022;23.078;2022-07-17T04:03:16;97124.13;;;21.20;65.62
20015;BME280;61787;42.022;23.078;2022-07-17T04:04:18;97125.31;;;21.23;65.71
20015;BME280;61787;42.022;23.078;2022-07-17T04:05:20;97127.59;;;21.35;65.79
20015;BME280;61787;42.022;23.078;2022-07-17T04:06:21;97120.91;;;21.50;65.47
20015;BME280;61787;42.022;23.078;2022-07-17T04:07:23;97122.06;;;21.56;65.05
20015;BME280;61787;42.022;23.078;2022-07-17T04:08:32;97122.84;;;21.53;65.35
20015;BME280;61787;42.022;23.078;2022-07-17T04:09:33;97121.69;;;21.54;65.80
20015;BME280;61787;42.022;23.078;2022-07-17T04:10:35;97132.19;;;21.59;66.11
20015;BME280;61787;42.022;23.078;2022-07-17T04:11:38;97130.19;;;21.67;66.07
20015;BME280;61787;42.022;23.078;2022-07-17T04:12:40;97126.66;;;21.70;65.96
20015;BME280;61787;42.022;23.078;2022-07-17T04:13:42;97133.25;;;21.80;66.09
20015;BME280;61787;42.022;23.078;2022-07-17T04:14:44;97136.31;;;21.89;66.16
20015;BME280;61787;42.022;23.078;2022-07-17T04:15:46;97126.91;;;22.04;66.14
20015;BME280;61787;42.022;23.078;2022-07-17T04:16:50;97129.13;;;22.20;66.11
20015;BME280;61787;42.022;23.078;2022-07-17T04:17:52;97135.25;;;22.38;66.83
20015;BME280;61787;42.022;23.078;2022-07-17T04:18:53;97136.69;;;22.53;67.22
20015;BME280;61787;42.022;23.078;2022-07-17T04:19:55;97138.13;;;22.68;66.75
20015;BME280;61787;42.022;23.078;2022-07-17T04:21:03;97134.88;;;22.84;65.04
20015;BME280;61787;42.022;23.078;2022-07-17T04:22:05;97133.31;;;22.83;63.75
20015;BME280;61787;42.022;23.078;2022-07-17T04:23:07;97135.66;;;22.84;63.79
20015;BME280;61787;42.022;23.078;2022-07-17T04:24:08;97138.72;;;22.90;63.96
20015;BME280;61787;42.022;23.078;2022-07-17T04:25:10;97138.03;;;22.82;64.24
20015;BME280;61787;42.022;23.078;2022-07-17T04:26:12;97134.88;;;22.84;64.14
20015;BME280;61787;42.022;23.078;2022-07-17T04:27:13;97144.94;;;22.94;63.95
20015;BME280;61787;42.022;23.078;2022-07-17T04:28:15;97132.78;;;22.99;63.33
20015;BME280;61787;42.022;23.078;2022-07-17T04:29:18;97137.06;;;23.00;63.33
20015;BME280;61787;42.022;23.078;2022-07-17T04:30:20;97126.84;;;23.07;62.99
20015;BME280;61787;42.022;23.078;2022-07-17T04:31:21;97132.59;;;23.16;62.66
20015;BME280;61787;42.022;23.078;2022-07-17T04:32:23;97128.69;;;23.17;61.58
20015;BME280;61787;42.022;23.078;2022-07-17T04:33:24;97131.44;;;23.17;61.61
20015;BME280;61787;42.022;23.078;2022-07-17T04:34:27;97129.09;;;23.16;60.81
20015;BME280;61787;42.022;23.078;2022-07-17T04:35:29;97134.97;;;23.14;60.99
20015;BME280;61787;42.022;23.078;2022-07-17T04:36:31;97138.47;;;23.18;61.26
20015;BME280;61787;42.022;23.078;2022-07-17T04:37:33;97131.75;;;23.23;60.58
20015;BME280;61787;42.022;23.078;2022-07-17T04:38:34;97130.16;;;23.25;60.23
20015;BME280;61787;42.022;23.078;2022-07-17T04:39:36;97133.63;;;23.29;59.78
20015;BME280;61787;42.022;23.078;2022-07-17T04:40:38;97130.81;;;23.36;59.23
20015;BME280;61787;42.022;23.078;2022-07-17T04:41:40;97135.84;;;23.42;58.57
20015;BME280;61787;42.022;23.078;2022-07-17T04:42:42;97134.88;;;23.59;58.22
20015;BME280;61787;42.022;23.078;2022-07-17T04:43:44;97133.16;;;23.72;57.47
20015;BME280;61787;42.022;23.078;2022-07-17T04:44:46;97134.56;;;23.84;57.53
20015;BME280;61787;42.022;23.078;2022-07-17T04:45:47;97133.53;;;24.01;56.38
20015;BME280;61787;42.022;23.078;2022-07-17T04:46:49;97132.19;;;24.12;56.37
20015;BME280;61787;42.022;23.078;2022-07-17T04:47:51;97140.13;;;24.34;55.47
20015;BME280;61787;42.022;23.078;2022-07-17T04:48:52;97138.41;;;24.43;55.56
20015;BME280;61787;42.022;23.078;2022-07-17T04:49:54;97139.69;;;24.62;56.37
20015;BME280;61787;42.022;23.078;2022-07-17T04:50:56;97144.16;;;24.76;58.22
20015;BME280;61787;42.022;23.078;2022-07-17T04:51:57;97150.09;;;24.97;58.52
20015;BME280;61787;42.022;23.078;2022-07-17T04:52:59;97145.44;;;25.14;59.26
20015;BME280;61787;42.022;23.078;2022-07-17T04:54:02;97145.50;;;25.34;59.23
20015;BME280;61787;42.022;23.078;2022-07-17T04:55:04;97149.16;;;25.47;57.68
20015;BME280;61787;42.022;23.078;2022-07-17T04:56:05;97149.16;;;25.47;57.85
20015;BME280;61787;42.022;23.078;2022-07-17T04:57:07;97148.19;;;25.57;56.28
20015;BME280;61787;42.022;23.078;2022-07-17T04:58:09;97152.84;;;25.80;56.15
20015;BME280;61787;42.022;23.078;2022-07-17T04:59:11;97146.00;;;25.68;55.98
20015;BME280;61787;42.022;23.078;2022-07-17T05:00:13;97150.06;;;25.60;56.46
20015;BME280;61787;42.022;23.078;2022-07-17T05:01:16;97148.06;;;25.64;56.33
20015;BME280;61787;42.022;23.078;2022-07-17T05:02:18;97154.59;;;25.70;55.73
20015;BME280;61787;42.022;23.078;2022-07-17T05:03:20;97145.66;;;25.66;56.75
20015;BME280;61787;42.022;23.078;2022-07-17T05:04:21;97153.94;;;25.82;57.04
20015;BME280;61787;42.022;23.078;2022-07-17T05:05:28;97158.44;;;25.93;55.83
20015;BME280;61787;42.022;23.078;2022-07-17T05:06:30;97153.63;;;25.97;55.66
20015;BME280;61787;42.022;23.078;2022-07-17T05:07:32;97153.13;;;26.02;55.41
20015;BME280;61787;42.022;23.078;2022-07-17T05:08:34;97151.00;;;26.09;55.12
20015;BME280;61787;42.022;23.078;2022-07-17T05:09:36;97150.09;;;26.16;54.84
20015;BME280;61787;42.022;23.078;2022-07-17T05:10:37;97151.50;;;26.24;55.36
20015;BME280;61787;42.022;23.078;2022-07-17T05:11:39;97151.34;;;26.31;55.35
20015;BME280;61787;42.022;23.078;2022-07-17T05:12:41;97154.41;;;26.33;55.43
20015;BME280;61787;42.022;23.078;2022-07-17T05:13:43;97153.63;;;26.33;55.77
20015;BME280;61787;42.022;23.078;2022-07-17T05:14:44;97152.88;;;26.32;55.38
20015;BME280;61787;42.022;23.078;2022-07-17T05:15:46;97156.47;;;26.29;55.86
20015;BME280;61787;42.022;23.078;2022-07-17T05:16:48;97157.97;;;26.14;56.40
20015;BME280;61787;42.022;23.078;2022-07-17T05:17:49;97166.03;;;26.05;56.29
20015;BME280;61787;42.022;23.078;2022-07-17T05:18:51;97158.63;;;26.02;56.39
20015;BME280;61787;42.022;23.078;2022-07-17T05:19:53;97160.34;;;25.96;56.29
20015;BME280;61787;42.022;23.078;2022-07-17T05:20:54;97160.13;;;25.86;56.95
20015;BME280;61787;42.022;23.078;2022-07-17T05:21:56;97159.03;;;25.84;56.88
20015;BME280;61787;42.022;23.078;2022-07-17T05:22:58;97157.56;;;25.79;56.71
20015;BME280;61787;42.022;23.078;2022-07-17T05:23:59;97161.81;;;25.80;56.81
20015;BME280;61787;42.022;23.078;2022-07-17T05:25:01;97164.25;;;25.78;56.71